aviador You're here:

OMDB Decoded Metar

DUBAI in UNITED ARAB EMIRATES
Report Time2018-01-17 01:00:00
UTC Time2018-01-17 01:18:34
Flight Rules vfr VFR
Wind260° at 09 kt
W.Decomp.*RWY 30: 6.8 kt HW 5.9 kt LCW
W.Rank260° ranks 15
Current wind is above 260° avg. (7.9)
Visibility9999 m
Phenomena:N/A
Clouds:Broken 040 Hf
Expected CloudBase > 3,600 ft AGL from Temp-Dew spread
Ceiling4,000 ft
Temp20°C (ISA +5)
Dew Point11°C (56% RH)
AAT17.1°C
QNH1014 hPa
Density Alt748 ft
Elevation16 ft
Report Wrong Elevation
Raw Report
OMDB 170100Z 26009KT 160V290 9999 BKN040 20/11 Q1014 NOSIG=

Extra information for OMDB:More info

Metar Taf Metar & Taf Last 4 Metars F.Rules Stats Wind Profile Meteogram Temp Stats Airport Information Weather charts Add Link Nearby VenuesMetar ALERT Operation Metar Decoded Social comments